Time;durP1;ratioP1;P1;durP2;ratioP2;P2;SDS_P1;SDS_P2;PMS_P1;PMS_P2;Temp;Humidity;BMP_temperature;BMP_pressure;BME280_temperature;BME280_humidity;BME280_pressure;Samples;Min_cycle;Max_cycle;Signal;HPM_P1;HPM_P2
2021/10/26 00:00:28;;;;;;;;;5.50;5.00;;;;;12.62;57.27;102074.78;146601;597;46010;-76
2021/10/26 00:03:02;;;;;;;;;5.50;5.50;;;;;12.67;58.03;102067.28;146596;582;47018;-81
2021/10/26 00:05:36;;;;;;;;;9.25;6.00;;;;;12.73;57.51;102071.97;146602;641;46020;-82
2021/10/26 00:08:10;;;;;;;;;6.25;6.25;;;;;12.79;58.09;102073.25;146600;587;45910;-74
2021/10/26 00:10:45;;;;;;;;;6.75;6.50;;;;;12.84;57.75;102066.66;146602;569;46020;-81
2021/10/26 00:13:19;;;;;;;;;8.25;5.25;;;;;12.88;58.64;102066.03;146599;569;46016;-83
2021/10/26 00:15:54;;;;;;;;;8.25;6.50;;;;;12.91;58.48;102061.03;146602;587;46021;-82
2021/10/26 00:18:28;;;;;;;;;9.00;8.00;;;;;12.97;58.63;102059.63;146599;682;46016;-72
2021/10/26 00:21:02;;;;;;;;;7.25;7.25;;;;;12.99;59.57;102048.50;146601;584;46008;-74
2021/10/26 00:23:36;;;;;;;;;5.25;5.00;;;;;13.01;59.23;102053.78;146598;615;46016;-76
2021/10/26 00:26:10;;;;;;;;;5.75;5.75;;;;;13.03;58.79;102053.09;146601;563;46020;-77
2021/10/26 00:28:44;;;;;;;;;8.00;6.25;;;;;13.04;59.00;102054.88;146598;614;46016;-77
2021/10/26 00:31:18;;;;;;;;;7.00;6.00;;;;;13.06;58.95;102052.38;146601;692;46008;-78
2021/10/26 00:33:52;;;;;;;;;9.25;5.00;;;;;13.06;59.41;102048.06;146599;570;46016;-77
2021/10/26 00:36:26;;;;;;;;;8.50;6.00;;;;;13.08;59.92;102046.47;146601;648;46020;-86
2021/10/26 00:39:00;;;;;;;;;7.00;6.00;;;;;13.08;59.94;102038.66;146600;619;45910;-80
2021/10/26 00:41:34;;;;;;;;;8.50;7.50;;;;;13.07;59.81;102044.66;146602;566;46020;-79
2021/10/26 00:44:08;;;;;;;;;7.50;7.00;;;;;13.04;60.13;102035.75;146600;627;46016;-77
2021/10/26 00:46:43;;;;;;;;;8.00;7.00;;;;;13.02;60.17;102026.94;146604;564;45023;-78
2021/10/26 00:49:16;;;;;;;;;8.25;7.75;;;;;13.00;60.09;102026.84;146598;563;47010;-77
2021/10/26 00:51:55;;;;;;;;;9.50;8.75;;;;;13.00;60.88;102021.66;146603;730;46021;-76
2021/10/26 00:54:29;;;;;;;;;9.50;9.00;;;;;12.98;60.63;102027.56;146599;660;46018;-76
2021/10/26 00:57:03;;;;;;;;;7.50;7.25;;;;;12.92;60.71;102020.25;146600;605;46018;-73
2021/10/26 00:59:37;;;;;;;;;9.00;9.00;;;;;12.88;60.37;102016.56;146598;612;47010;-73
2021/10/26 01:02:11;;;;;;;;;8.50;7.00;;;;;12.85;60.93;102003.37;146602;564;46020;-73
2021/10/26 01:04:45;;;;;;;;;8.75;7.00;;;;;12.88;60.68;102000.94;146599;631;46016;-76
2021/10/26 01:07:19;;;;;;;;;9.75;6.75;;;;;12.89;61.07;101999.25;146602;564;45022;-76
2021/10/26 01:09:53;;;;;;;;;5.25;5.25;;;;;12.88;61.44;102007.88;146600;586;46016;-76
2021/10/26 01:12:30;;;;;;;;;4.75;4.75;;;;;12.78;61.19;102003.78;146599;575;47010;-76
2021/10/26 01:15:04;;;;;;;;;6.75;6.00;;;;;12.76;61.22;102001.91;146597;588;46017;-74
2021/10/26 01:17:38;;;;;;;;;6.75;6.00;;;;;12.70;60.68;101990.28;146601;683;46008;-73
2021/10/26 01:20:13;;;;;;;;;7.50;7.50;;;;;12.66;59.47;101990.00;146599;602;46016;-73
2021/10/26 01:22:47;;;;;;;;;9.25;8.00;;;;;12.63;59.25;101988.12;146599;566;46008;-73
2021/10/26 01:25:21;;;;;;;;;10.00;7.75;;;;;12.65;59.27;101986.50;146599;590;46016;-73
2021/10/26 01:27:55;;;;;;;;;7.00;7.00;;;;;12.74;59.75;101987.88;146599;582;46908;-78
2021/10/26 01:30:33;;;;;;;;;9.00;8.00;;;;;12.80;58.68;101989.16;146597;574;46017;-80
2021/10/26 01:33:09;;;;;;;;;7.25;7.00;;;;;12.83;58.76;101980.62;146599;635;47010;-77
2021/10/26 01:35:43;;;;;;;;;9.00;9.00;;;;;12.85;59.55;101985.16;146598;570;46016;-74
2021/10/26 01:38:17;;;;;;;;;9.75;9.00;;;;;12.83;59.86;101983.25;146601;621;46021;-74
2021/10/26 01:40:51;;;;;;;;;9.25;8.75;;;;;12.84;60.46;101980.75;146599;570;46016;-82
2021/10/26 01:43:26;;;;;;;;;9.00;6.50;;;;;12.87;60.54;101986.16;146604;646;46006;-79
2021/10/26 01:46:00;;;;;;;;;10.00;7.75;;;;;12.88;59.94;101980.13;146596;602;47010;-76
2021/10/26 01:48:34;;;;;;;;;8.75;7.50;;;;;12.86;60.34;101981.72;146597;607;47008;-79
2021/10/26 01:51:08;;;;;;;;;8.00;7.00;;;;;12.83;60.52;101976.31;146595;611;47010;-77
2021/10/26 01:53:42;;;;;;;;;10.00;8.00;;;;;12.82;59.77;101977.16;146602;574;46020;-78
2021/10/26 01:56:16;;;;;;;;;11.00;8.00;;;;;12.80;60.08;101978.75;146597;683;46010;-75
2021/10/26 01:58:50;;;;;;;;;9.00;8.00;;;;;12.80;60.33;101973.53;146603;580;46008;-75
2021/10/26 02:01:24;;;;;;;;;7.25;7.00;;;;;12.82;60.69;101971.03;146596;678;47010;-75
2021/10/26 02:03:58;;;;;;;;;8.75;8.00;;;;;12.84;60.64;101967.75;146603;563;46008;-75
2021/10/26 02:06:32;;;;;;;;;9.25;7.00;;;;;12.87;60.84;101973.13;146599;606;46016;-75
2021/10/26 02:09:06;;;;;;;;;7.25;6.00;;;;;12.89;61.48;101970.59;146603;588;46020;-75
2021/10/26 02:11:40;;;;;;;;;8.50;8.00;;;;;12.04;61.14;101828.31;146597;674;46016;-73
2021/10/26 02:14:14;;;;;;;;;7.00;7.00;;;;;12.85;60.53;101974.72;146600;695;46021;-82
2021/10/26 02:16:48;;;;;;;;;8.75;6.50;;;;;12.83;60.55;101975.44;146599;578;46016;-73
2021/10/26 02:19:22;;;;;;;;;8.25;7.75;;;;;12.82;59.66;101977.16;146602;653;46021;-73
2021/10/26 02:21:57;;;;;;;;;9.00;9.00;;;;;12.86;60.54;101983.44;146597;573;46019;-72
2021/10/26 02:24:31;;;;;;;;;8.50;7.50;;;;;12.89;61.14;101981.03;146601;665;46020;-74
2021/10/26 02:27:05;;;;;;;;;7.75;7.00;;;;;12.90;60.86;101978.53;146594;627;47018;-74
2021/10/26 02:29:39;;;;;;;;;6.50;6.00;;;;;12.92;61.30;101974.28;146603;588;46017;-75
2021/10/26 02:32:12;;;;;;;;;7.50;7.50;;;;;12.95;61.86;101976.19;146598;635;46016;-74
2021/10/26 02:34:47;;;;;;;;;8.50;6.75;;;;;12.94;62.21;101979.63;146599;638;47008;-75
2021/10/26 02:37:21;;;;;;;;;7.25;7.25;;;;;12.90;61.07;101981.12;146596;584;47010;-75
2021/10/26 02:39:56;;;;;;;;;7.75;7.25;;;;;12.89;61.93;101975.81;146603;570;46020;-74
2021/10/26 02:42:29;;;;;;;;;7.00;6.00;;;;;12.89;61.40;101975.81;146599;572;46017;-74
2021/10/26 02:45:04;;;;;;;;;9.50;8.00;;;;;12.89;61.24;101976.72;146598;565;47008;-74
2021/10/26 02:47:38;;;;;;;;;6.75;6.75;;;;;12.90;61.08;101982.84;146597;587;47010;-75
2021/10/26 02:50:12;;;;;;;;;9.00;6.75;;;;;12.90;61.17;101972.44;146599;573;46021;-74
2021/10/26 02:52:46;;;;;;;;;7.75;7.00;;;;;12.93;61.68;101962.22;146601;583;46010;-74
2021/10/26 02:55:20;;;;;;;;;10.75;8.00;;;;;13.01;61.82;101970.47;146598;608;46020;-74
2021/10/26 02:57:54;;;;;;;;;9.25;7.25;;;;;13.03;61.92;101963.66;146597;588;46016;-75
2021/10/26 03:00:28;;;;;;;;;9.25;6.00;;;;;13.05;61.97;101962.03;146602;594;46020;-74
2021/10/26 03:03:02;;;;;;;;;8.50;7.00;;;;;13.06;61.79;101969.94;146598;637;47010;-75
2021/10/26 03:05:39;;;;;;;;;10.25;9.00;;;;;13.09;62.42;101967.53;146599;565;46021;-74
2021/10/26 03:08:14;;;;;;;;;9.50;8.75;;;;;13.12;61.79;101967.72;146597;595;46016;-76
2021/10/26 03:10:48;;;;;;;;;8.00;8.00;;;;;13.15;61.44;101969.63;146601;591;46020;-75
2021/10/26 03:13:22;;;;;;;;;7.25;7.00;;;;;13.17;62.06;101961.06;146597;598;47010;-74
2021/10/26 03:15:57;;;;;;;;;8.75;8.25;;;;;13.20;61.45;101970.78;146600;590;47008;-76
2021/10/26 03:18:31;;;;;;;;;10.25;8.75;;;;;13.21;61.21;101959.56;146595;574;47010;-77
2021/10/26 03:21:05;;;;;;;;;10.50;8.25;;;;;13.21;60.26;101970.00;146601;579;45021;-76
2021/10/26 03:23:39;;;;;;;;;14.25;12.00;;;;;13.21;61.46;101967.38;146599;602;45910;-74
2021/10/26 03:26:13;;;;;;;;;16.50;14.75;;;;;13.19;61.60;101969.00;146596;603;47008;-75
2021/10/26 03:28:47;;;;;;;;;14.75;13.75;;;;;13.17;60.86;101961.06;146596;592;46019;-77
2021/10/26 03:31:21;;;;;;;;;12.75;11.25;;;;;13.13;60.09;101961.69;146594;739;47008;-73
2021/10/26 03:33:55;;;;;;;;;12.00;9.50;;;;;13.13;59.86;101961.69;146598;577;46017;-72
2021/10/26 03:36:29;;;;;;;;;10.25;9.25;;;;;13.16;59.73;101966.19;146599;565;46008;-73
2021/10/26 03:39:03;;;;;;;;;8.50;7.00;;;;;13.20;60.18;101972.47;146600;672;46016;-73
2021/10/26 03:41:37;;;;;;;;;8.75;8.00;;;;;13.22;59.25;101966.56;146598;574;46908;-70
2021/10/26 03:44:11;;;;;;;;;8.75;7.25;;;;;13.25;59.55;101972.00;146601;591;45910;-75
2021/10/26 03:46:45;;;;;;;;;9.75;8.00;;;;;13.27;60.40;101970.41;146598;573;46908;-76
2021/10/26 03:49:26;;;;;;;;;8.25;7.00;;;;;13.29;58.65;101966.16;146600;733;46017;-77
2021/10/26 03:52:00;;;;;;;;;6.50;6.50;;;;;13.29;58.04;101967.88;146599;620;47008;-77
2021/10/26 03:54:38;;;;;;;;;4.50;4.50;;;;;13.32;56.85;101962.84;146601;571;46016;-77
2021/10/26 03:57:12;;;;;;;;;3.75;3.75;;;;;13.40;56.27;101961.59;146599;711;46010;-77
2021/10/26 03:59:46;;;;;;;;;4.00;3.00;;;;;13.46;56.15;101961.97;146597;575;47018;-80
2021/10/26 04:02:25;;;;;;;;;6.50;4.00;;;;;13.51;56.37;101954.41;146601;633;46008;-75
2021/10/26 04:05:11;;;;;;;;;4.00;3.00;;;;;13.53;56.44;101945.87;146599;642;46017;-76
2021/10/26 04:07:54;;;;;;;;;5.00;4.25;;;;;13.62;56.68;101954.22;146597;662;47010;-76
2021/10/26 04:10:36;;;;;;;;;4.00;4.00;;;;;13.68;55.79;101961.53;146599;604;46024;-76
2021/10/26 04:13:12;;;;;;;;;4.50;3.00;;;;;13.68;55.88;101950.19;146599;692;47006;-75
2021/10/26 04:15:46;;;;;;;;;5.00;4.50;;;;;13.74;55.85;101961.87;146598;613;47010;-74
2021/10/26 04:18:21;;;;;;;;;5.00;5.00;;;;;13.76;56.58;101956.72;146601;564;46010;-74
2021/10/26 04:20:56;;;;;;;;;5.75;4.75;;;;;13.77;56.27;101954.22;146597;569;47010;-74
2021/10/26 04:23:30;;;;;;;;;7.75;7.75;;;;;13.75;56.48;101941.91;146600;602;46020;-74
2021/10/26 04:26:04;;;;;;;;;5.00;5.00;;;;;13.81;56.14;101953.59;146598;647;47011;-73
2021/10/26 04:28:39;;;;;;;;;5.50;4.75;;;;;13.81;56.32;101956.19;146600;580;47010;-73
2021/10/26 04:31:14;;;;;;;;;7.25;7.00;;;;;13.83;56.27;101948.44;146595;586;47010;-73
2021/10/26 04:33:49;;;;;;;;;8.00;8.00;;;;;13.84;56.47;101950.28;146601;576;46021;-73
2021/10/26 04:36:22;;;;;;;;;7.25;6.25;;;;;13.83;55.67;101948.44;146599;570;46016;-73
2021/10/26 04:38:57;;;;;;;;;7.00;6.00;;;;;13.83;55.67;101944.16;146602;583;46008;-72
2021/10/26 04:41:33;;;;;;;;;4.75;4.75;;;;;13.85;55.43;101947.72;146601;570;45910;-75
2021/10/26 04:44:08;;;;;;;;;3.00;3.00;;;;;13.84;55.64;101953.78;146602;573;46020;-75
2021/10/26 04:46:42;;;;;;;;;4.00;2.75;;;;;13.85;54.60;101958.16;146598;635;47010;-77
2021/10/26 04:49:16;;;;;;;;;5.25;5.25;;;;;13.85;53.95;101957.25;146599;622;46010;-75
2021/10/26 04:51:50;;;;;;;;;4.00;4.00;;;;;13.84;54.41;101958.97;146598;617;47917;-74
2021/10/26 04:54:24;;;;;;;;;5.00;4.75;;;;;13.82;54.74;101964.91;146599;627;47008;-73
2021/10/26 04:56:58;;;;;;;;;5.75;4.00;;;;;13.81;54.74;101965.72;146599;570;46010;-75
2021/10/26 04:59:32;;;;;;;;;8.50;5.00;;;;;13.81;54.89;101966.63;146601;582;46020;-80
2021/10/26 05:02:06;;;;;;;;;8.00;7.75;;;;;13.80;54.96;101982.16;146596;598;47010;-78
2021/10/26 05:04:40;;;;;;;;;9.75;8.00;;;;;13.79;54.70;101980.38;146599;678;47008;-78
2021/10/26 05:07:15;;;;;;;;;80.50;66.75;;;;;13.78;55.32;101976.88;146599;581;46016;-78
2021/10/26 05:09:49;;;;;;;;;157.00;123.00;;;;;13.77;53.48;101976.75;146604;596;47008;-79
2021/10/26 05:12:23;;;;;;;;;70.00;51.25;;;;;13.72;53.21;101975.63;146605;575;46010;-78
2021/10/26 05:14:57;;;;;;;;;15.00;13.00;;;;;13.67;53.90;101975.34;146596;609;47008;-81
2021/10/26 05:17:31;;;;;;;;;5.75;5.00;;;;;13.63;53.75;101971.66;146597;601;46031;-78
2021/10/26 05:20:06;;;;;;;;;7.00;7.00;;;;;13.62;54.05;101979.41;146602;578;46020;-76
2021/10/26 05:22:40;;;;;;;;;5.50;3.50;;;;;13.59;53.55;101979.22;146598;571;46016;-76
2021/10/26 05:25:14;;;;;;;;;6.00;4.25;;;;;13.60;53.83;101981.00;146603;628;46021;-76
2021/10/26 05:27:49;;;;;;;;;8.00;5.75;;;;;13.58;53.78;101980.00;146596;630;47010;-76
2021/10/26 05:30:23;;;;;;;;;6.50;6.50;;;;;13.60;54.24;101986.22;146600;588;46020;-76
2021/10/26 05:32:57;;;;;;;;;10.00;8.00;;;;;13.61;53.89;101988.00;146597;601;46017;-77
2021/10/26 05:35:31;;;;;;;;;6.00;6.00;;;;;13.63;53.62;101981.19;146602;595;46010;-76
2021/10/26 05:38:05;;;;;;;;;6.50;5.50;;;;;13.67;53.03;101984.88;146599;569;47010;-77
2021/10/26 05:40:40;;;;;;;;;5.00;3.75;;;;;13.68;53.52;101979.75;146599;601;46021;-76
2021/10/26 05:43:14;;;;;;;;;7.25;6.50;;;;;13.73;53.53;101985.22;146596;560;47010;-77
2021/10/26 05:45:49;;;;;;;;;14.75;13.00;;;;;13.78;53.59;101989.00;146598;594;46010;-73
2021/10/26 05:48:24;;;;;;;;;20.25;17.25;;;;;13.83;54.05;101991.09;146596;598;46017;-74
2021/10/26 05:50:59;;;;;;;;;13.25;11.75;;;;;13.91;54.32;101993.22;146597;566;47008;-74
2021/10/26 05:53:33;;;;;;;;;15.25;13.75;;;;;14.01;54.12;102003.37;146596;639;47010;-74
2021/10/26 05:56:07;;;;;;;;;5.50;5.50;;;;;14.08;53.18;102000.28;146599;667;46021;-73
2021/10/26 05:58:41;;;;;;;;;6.25;6.00;;;;;14.13;53.45;102000.56;146597;572;46016;-73
2021/10/26 06:01:16;;;;;;;;;4.00;4.00;;;;;14.17;54.04;101994.72;146600;581;46020;-73
2021/10/26 06:03:50;;;;;;;;;7.00;7.00;;;;;14.24;54.65;101999.50;146597;571;46017;-73
2021/10/26 06:06:24;;;;;;;;;7.75;7.25;;;;;14.58;55.21;101991.88;146602;569;46020;-73
2021/10/26 06:08:58;;;;;;;;;6.75;6.75;;;;;15.05;53.38;102001.38;146595;564;47011;-73
2021/10/26 06:11:32;;;;;;;;;9.50;9.00;;;;;15.33;52.31;101998.50;146598;610;46020;-73
2021/10/26 06:14:08;;;;;;;;;8.25;7.25;;;;;15.47;52.02;102004.44;146597;563;46016;-73
2021/10/26 06:16:42;;;;;;;;;7.00;7.00;;;;;15.51;51.50;101998.53;146599;620;47010;-73
2021/10/26 06:19:16;;;;;;;;;11.75;11.75;;;;;15.55;51.20;101991.78;146597;570;46017;-72
2021/10/26 06:21:50;;;;;;;;;11.75;11.25;;;;;15.53;51.46;101999.53;146599;569;47008;-83
2021/10/26 06:24:24;;;;;;;;;17.25;16.00;;;;;15.52;50.64;102005.59;146595;707;47011;-83
2021/10/26 06:26:58;;;;;;;;;15.00;13.50;;;;;15.50;50.66;101996.75;146597;598;47008;-83
2021/10/26 06:29:32;;;;;;;;;11.75;8.75;;;;;15.46;50.37;102000.94;146599;565;46016;-84
2021/10/26 06:32:06;;;;;;;;;7.75;6.75;;;;;15.42;50.40;102003.28;146599;570;47006;-83
2021/10/26 06:34:40;;;;;;;;;5.50;4.25;;;;;15.38;49.30;102006.56;146600;653;46016;-83
2021/10/26 06:37:14;;;;;;;;;9.25;8.25;;;;;15.33;49.52;102008.06;146599;583;47008;-83
2021/10/26 06:39:49;;;;;;;;;10.25;10.25;;;;;15.29;49.92;102016.53;146595;614;47010;-85
2021/10/26 06:42:23;;;;;;;;;11.50;9.75;;;;;15.24;50.59;102014.59;146600;663;46020;-77
2021/10/26 06:44:57;;;;;;;;;8.00;7.00;;;;;15.21;51.12;102008.31;146597;585;46016;-77
2021/10/26 06:47:32;;;;;;;;;4.00;3.75;;;;;15.17;51.28;102003.72;146598;601;47007;-76
2021/10/26 06:50:07;;;;;;;;;4.25;4.00;;;;;15.14;50.75;102003.56;146599;569;46016;-78
2021/10/26 06:52:41;;;;;;;;;5.75;4.75;;;;;15.12;50.86;102008.72;146599;570;46021;-81
2021/10/26 06:55:19;;;;;;;;;6.00;6.00;;;;;15.11;51.24;102014.78;146600;644;45910;-81
2021/10/26 06:57:53;;;;;;;;;4.00;3.25;;;;;15.09;51.16;102011.16;146598;660;47008;-80
2021/10/26 07:00:27;;;;;;;;;4.00;2.75;;;;;15.10;50.87;102015.56;146598;564;46016;-80
2021/10/26 07:03:03;;;;;;;;;2.75;2.50;;;;;15.11;50.14;102020.00;146603;579;46011;-81
2021/10/26 07:05:38;;;;;;;;;4.25;4.00;;;;;15.10;50.40;102012.06;146595;573;47010;-82
2021/10/26 07:08:12;;;;;;;;;6.00;4.75;;;;;15.14;50.64;102017.53;146601;608;46021;-77
2021/10/26 07:10:46;;;;;;;;;4.00;2.75;;;;;15.18;50.27;102011.66;146599;573;46010;-77
2021/10/26 07:13:20;;;;;;;;;6.75;5.75;;;;;15.30;50.34;102015.75;146604;620;45022;-77
2021/10/26 07:15:54;;;;;;;;;3.25;2.00;;;;;15.41;50.20;102006.72;146599;619;46017;-79
2021/10/26 07:18:28;;;;;;;;;4.00;4.00;;;;;15.53;50.71;102006.47;146601;592;46020;-74
2021/10/26 07:21:02;;;;;;;;;3.50;3.50;;;;;15.64;49.96;102000.09;146599;606;46016;-74
2021/10/26 07:23:36;;;;;;;;;2.75;2.75;;;;;15.76;49.25;101999.81;146600;643;46020;-74
2021/10/26 07:26:10;;;;;;;;;2.50;2.50;;;;;15.82;49.21;102006.25;146597;622;46016;-74
2021/10/26 07:28:43;;;;;;;;;3.00;3.00;;;;;15.81;48.66;101987.88;146601;599;46008;-75
2021/10/26 07:31:23;;;;;;;;;5.25;3.50;;;;;15.94;49.41;102004.25;146598;577;47010;-74
2021/10/26 07:33:59;;;;;;;;;5.00;3.00;;;;;16.01;47.11;102012.41;146599;636;46020;-74
2021/10/26 07:36:43;;;;;;;;;4.25;2.75;;;;;16.05;47.74;102007.41;146598;582;46016;-74
2021/10/26 07:42:12;;;;;;;;;3.67;3.33;;;;;16.05;47.75;101996.94;146599;565;46016;-80
2021/10/26 07:44:47;;;;;;;;;4.25;2.75;;;;;16.12;48.15;102004.28;146602;620;46021;-77
2021/10/26 07:47:21;;;;;;;;;5.75;3.75;;;;;16.18;48.49;102006.28;146597;618;46017;-77
2021/10/26 07:49:58;;;;;;;;;3.75;2.50;;;;;16.08;48.87;101968.31;146598;694;47008;-76
2021/10/26 07:52:32;;;;;;;;;3.00;2.00;;;;;16.38;48.97;101989.81;146598;571;46016;-77
2021/10/26 07:55:09;;;;;;;;;2.33;2.33;;;;;16.60;44.98;101989.13;146598;588;47010;-77
2021/10/26 07:57:43;;;;;;;;;3.50;2.50;;;;;16.90;48.06;101986.16;146598;572;46010;-77
2021/10/26 08:00:21;;;;;;;;;2.67;2.67;;;;;17.34;46.91;101981.09;146602;578;46021;-77
2021/10/26 08:02:54;;;;;;;;;3.00;2.00;;;;;17.79;44.72;101979.59;146599;597;47010;-68
2021/10/26 08:05:28;;;;;;;;;5.33;4.33;;;;;18.10;46.61;101988.69;146603;695;46020;-74
2021/10/26 08:08:03;;;;;;;;;2.33;2.33;;;;;18.42;45.42;101979.50;146600;598;46017;-72
2021/10/26 08:10:37;;;;;;;;;5.67;5.00;;;;;18.68;47.24;101983.13;146600;589;47015;-73
2021/10/26 08:13:11;;;;;;;;;4.00;3.33;;;;;18.95;46.23;101979.81;146597;604;46016;-74
2021/10/26 08:15:45;;;;;;;;;2.33;1.67;;;;;19.30;43.35;101978.44;146603;601;46009;-74
2021/10/26 08:18:19;;;;;;;;;2.67;2.67;;;;;19.55;44.48;101993.34;146600;584;46016;-74
2021/10/26 08:20:53;;;;;;;;;5.00;3.00;;;;;19.58;44.34;101985.56;146603;582;46006;-74
2021/10/26 08:23:27;;;;;;;;;4.67;3.00;;;;;19.45;44.16;101978.09;146600;564;46028;-74
2021/10/26 08:26:01;;;;;;;;;5.75;5.00;;;;;19.21;44.12;101988.63;146599;607;47008;-75
2021/10/26 08:28:35;;;;;;;;;4.67;4.33;;;;;18.87;43.96;101992.63;146598;576;46016;-76
2021/10/26 08:31:22;;;;;;;;;3.00;3.00;;;;;18.50;45.16;101988.56;146602;566;46020;-75
2021/10/26 08:34:12;;;;;;;;;4.25;4.25;;;;;18.13;45.81;101992.37;146598;616;47010;-75
2021/10/26 08:36:47;;;;;;;;;4.00;4.00;;;;;17.85;46.91;101999.91;146601;657;46020;-75
2021/10/26 08:39:30;;;;;;;;;7.00;5.00;;;;;17.64;48.01;101995.53;146599;624;46017;-75
2021/10/26 08:42:05;;;;;;;;;4.25;4.25;;;;;17.50;48.03;101991.41;146597;677;46024;-76
2021/10/26 08:44:41;;;;;;;;;6.50;4.75;;;;;17.38;48.54;101991.78;146597;642;47011;-75
2021/10/26 08:47:17;;;;;;;;;5.25;5.00;;;;;17.27;49.47;101993.06;146601;664;46022;-75
2021/10/26 08:49:53;;;;;;;;;5.00;3.67;;;;;17.08;48.83;101967.75;146596;618;47910;-75
2021/10/26 08:52:28;;;;;;;;;6.00;4.00;;;;;17.19;49.87;101987.44;146601;655;46020;-75
2021/10/26 08:55:04;;;;;;;;;5.50;5.00;;;;;17.20;49.61;101989.28;146600;635;46909;-75
2021/10/26 08:57:42;;;;;;;;;5.00;4.00;;;;;17.22;49.04;101991.94;146598;616;47010;-75
2021/10/26 09:00:18;;;;;;;;;7.50;6.25;;;;;17.21;50.40;101987.53;146599;608;46016;-75
2021/10/26 09:02:53;;;;;;;;;5.00;5.00;;;;;17.22;49.27;101976.22;146600;592;46021;-75
2021/10/26 09:05:30;;;;;;;;;7.25;5.00;;;;;17.21;49.90;101974.44;146595;597;47010;-75
2021/10/26 09:08:13;;;;;;;;;5.25;4.50;;;;;17.15;50.84;101976.78;146598;678;46908;-75
2021/10/26 09:10:47;;;;;;;;;4.50;4.50;;;;;17.10;50.67;101971.31;146598;694;46029;-75
2021/10/26 09:16:51;;;;;;;;;4.50;3.50;;;;;15.90;50.84;101761.69;146596;652;46017;-75
2021/10/26 09:19:28;;;;;;;;;3.67;3.67;;;;;17.08;50.31;101963.41;146603;571;46020;-75
2021/10/26 09:22:08;;;;;;;;;5.00;5.00;;;;;17.09;50.12;101961.69;146597;598;46017;-75
2021/10/26 09:24:57;;;;;;;;;7.33;6.00;;;;;17.11;50.91;101962.66;146600;574;47010;-75
2021/10/26 09:27:33;;;;;;;;;4.50;4.00;;;;;17.12;49.44;101961.81;146597;704;47018;-75
2021/10/26 09:30:14;;;;;;;;;5.00;4.00;;;;;17.13;50.29;101953.09;146601;575;46021;-75
2021/10/26 09:32:54;;;;;;;;;7.25;4.50;;;;;17.14;49.99;101951.41;146598;682;46016;-75
2021/10/26 09:35:30;;;;;;;;;4.00;4.00;;;;;17.15;49.52;101950.56;146600;564;47010;-75
2021/10/26 09:38:04;;;;;;;;;4.00;4.00;;;;;17.15;48.20;101950.56;146600;579;46018;-75
2021/10/26 09:40:45;;;;;;;;;4.67;4.00;;;;;17.13;49.28;101946.97;146600;614;47008;-75
2021/10/26 09:43:19;;;;;;;;;5.25;4.75;;;;;17.11;48.81;101943.41;146598;687;46018;-75
2021/10/26 09:45:53;;;;;;;;;2.50;2.50;;;;;17.08;49.95;101950.31;146598;584;47008;-76
2021/10/26 09:48:29;;;;;;;;;4.33;4.00;;;;;17.09;48.89;101949.47;146599;602;47010;-75
2021/10/26 09:51:10;;;;;;;;;5.33;5.33;;;;;17.13;48.73;101931.25;146600;662;46020;-76
2021/10/26 09:53:44;;;;;;;;;8.33;6.67;;;;;17.17;48.99;101936.72;146598;600;46016;-75
2021/10/26 09:56:20;;;;;;;;;4.00;3.75;;;;;17.17;49.84;101934.09;146598;579;47008;-76
2021/10/26 09:59:17;;;;;;;;;16.25;14.50;;;;;16.14;50.32;101743.59;146595;683;47018;-75
2021/10/26 10:01:57;;;;;;;;;9.50;8.50;;;;;17.24;49.84;101930.91;146599;626;46021;-75
2021/10/26 10:04:40;;;;;;;;;8.00;6.50;;;;;17.27;49.14;101924.91;146599;622;46016;-75
2021/10/26 10:07:13;;;;;;;;;5.50;5.50;;;;;17.24;49.11;101922.16;146601;594;46021;-75
2021/10/26 10:09:57;;;;;;;;;6.25;5.00;;;;;17.22;50.45;101915.94;146598;570;46016;-75
2021/10/26 10:12:32;;;;;;;;;7.00;7.00;;;;;17.26;49.68;101912.63;146601;701;46020;-75
2021/10/26 10:15:09;;;;;;;;;6.25;6.25;;;;;17.25;49.17;101910.81;146599;671;46017;-74
2021/10/26 10:17:45;;;;;;;;;5.50;4.75;;;;;17.23;49.41;101907.25;146602;571;46020;-74
2021/10/26 10:20:21;;;;;;;;;6.00;6.00;;;;;17.19;49.51;101903.56;146594;571;47910;-75
2021/10/26 10:22:56;;;;;;;;;7.75;5.75;;;;;17.17;49.37;101899.13;146599;666;47008;-75
2021/10/26 10:25:31;;;;;;;;;6.75;5.75;;;;;17.15;49.81;101895.53;146597;683;46016;-75
2021/10/26 10:28:06;;;;;;;;;5.25;5.25;;;;;17.19;49.68;101903.56;146601;607;46020;-75
2021/10/26 10:30:42;;;;;;;;;7.75;5.50;;;;;17.26;50.06;101891.66;146598;667;46017;-75
2021/10/26 10:33:17;;;;;;;;;7.50;7.50;;;;;17.34;49.31;101885.00;146600;700;46008;-75
2021/10/26 10:35:55;;;;;;;;;4.00;4.00;;;;;17.39;48.61;101883.47;146597;627;46019;-75
2021/10/26 10:38:36;;;;;;;;;6.50;5.00;;;;;17.38;49.22;101880.78;146602;579;46020;-75
2021/10/26 10:41:33;;;;;;;;;6.00;6.00;;;;;17.38;50.32;101873.78;146596;566;46016;-75
2021/10/26 10:44:10;;;;;;;;;8.00;8.00;;;;;17.32;49.82;101839.50;146601;634;46008;-74
2021/10/26 10:47:01;;;;;;;;;6.00;6.00;;;;;17.50;48.90;101868.19;146599;612;46016;-75
2021/10/26 10:49:55;;;;;;;;;5.50;5.50;;;;;17.54;49.43;101867.50;146598;657;47010;-75
2021/10/26 10:52:38;;;;;;;;;5.00;4.50;;;;;17.53;48.71;101863.94;146597;564;46030;-75
2021/10/26 10:55:27;;;;;;;;;7.25;5.75;;;;;17.50;49.16;101849.81;146597;628;47008;-75
2021/10/26 10:58:50;;;;;;;;;5.50;5.50;;;;;16.59;49.63;101682.69;146598;585;46016;-75
2021/10/26 11:01:45;;;;;;;;;4.00;3.25;;;;;17.53;49.70;101835.09;146604;691;46008;-74
2021/10/26 11:04:44;;;;;;;;;4.00;4.00;;;;;17.44;48.70;101821.62;146598;614;46016;-72
2021/10/26 11:07:19;;;;;;;;;5.50;5.50;;;;;17.44;47.76;101834.72;146600;653;46021;-77
2021/10/26 11:09:56;;;;;;;;;5.67;4.33;;;;;17.40;48.47;101832.81;146599;588;46031;-77
2021/10/26 11:12:38;;;;;;;;;6.00;6.00;;;;;17.42;48.94;101831.16;146598;572;47008;-72
2021/10/26 11:15:17;;;;;;;;;4.67;4.33;;;;;17.43;48.56;101824.19;146599;696;46016;-76
2021/10/26 11:17:53;;;;;;;;;9.25;6.50;;;;;17.40;48.77;101826.69;146598;641;47010;-73
2021/10/26 11:20:53;;;;;;;;;7.25;6.50;;;;;16.40;49.16;101642.66;146597;577;47010;-72
2021/10/26 11:23:37;;;;;;;;;7.33;5.33;;;;;17.29;48.68;101806.19;146601;695;47008;-77
2021/10/26 11:26:23;;;;;;;;;5.33;4.33;;;;;17.24;48.73;101798.94;146599;615;46016;-78
2021/10/26 11:29:00;;;;;;;;;8.00;7.00;;;;;17.20;49.53;101799.66;146601;639;46008;-79
2021/10/26 11:31:45;;;;;;;;;9.00;8.00;;;;;17.22;49.81;101796.25;146599;690;46010;-78
2021/10/26 11:34:37;;;;;;;;;7.67;6.67;;;;;17.29;49.78;101802.66;146600;613;46008;-78
2021/10/26 11:37:13;;;;;;;;;3.67;3.67;;;;;17.37;48.90;101795.09;146599;586;46017;-78
2021/10/26 11:39:48;;;;;;;;;7.50;6.00;;;;;17.42;48.76;101786.59;146599;676;46023;-77
2021/10/26 11:42:23;;;;;;;;;10.00;8.00;;;;;17.35;48.99;101766.19;146600;684;46010;-77
2021/10/26 11:45:10;;;;;;;;;12.50;11.25;;;;;17.56;49.04;101776.63;146601;618;46008;-79
2021/10/26 11:47:49;;;;;;;;;8.00;8.00;;;;;17.61;48.19;101771.59;146599;644;46016;-78
2021/10/26 11:50:26;;;;;;;;;10.25;7.25;;;;;17.63;48.67;101770.81;146600;570;46021;-78
2021/10/26 11:53:01;;;;;;;;;6.25;6.25;;;;;17.68;48.20;101773.59;146597;693;46016;-79
2021/10/26 11:55:37;;;;;;;;;6.75;6.00;;;;;17.65;47.13;101768.25;146598;580;47008;-78
2021/10/26 11:58:16;;;;;;;;;4.33;4.00;;;;;17.61;47.16;101766.34;146597;564;47010;-78
2021/10/26 12:00:51;;;;;;;;;6.00;5.00;;;;;17.53;47.21;101768.66;146602;639;46020;-78
2021/10/26 12:03:26;;;;;;;;;6.00;5.67;;;;;17.44;48.17;101761.31;146596;570;46912;-78
2021/10/26 12:06:02;;;;;;;;;5.33;5.33;;;;;17.43;47.83;101759.53;146602;571;46008;-78
2021/10/26 12:08:39;;;;;;;;;5.00;5.00;;;;;17.45;48.24;101760.50;146601;631;46911;-79
2021/10/26 12:11:14;;;;;;;;;8.00;6.50;;;;;17.46;47.94;101756.13;146601;611;46020;-78